sensor_id;sensor_type;location;lat;lon;timestamp;P1;durP1;ratioP1;P2;durP2;ratioP2
52186;SDS011;38161;53.020;6.598;2022-09-09T00:00:27;11.55;;;7.72;;
52186;SDS011;38161;53.020;6.598;2022-09-09T00:03:17;10.40;;;7.85;;
52186;SDS011;38161;53.020;6.598;2022-09-09T00:05:54;13.45;;;7.93;;
52186;SDS011;38161;53.020;6.598;2022-09-09T00:08:40;11.50;;;7.60;;
52186;SDS011;38161;53.020;6.598;2022-09-09T00:11:17;10.40;;;7.50;;
52186;SDS011;38161;53.020;6.598;2022-09-09T00:14:02;12.07;;;8.05;;
52186;SDS011;38161;53.020;6.598;2022-09-09T00:16:34;13.15;;;7.40;;
52186;SDS011;38161;53.020;6.598;2022-09-09T00:19:06;9.80;;;7.22;;
52186;SDS011;38161;53.020;6.598;2022-09-09T00:21:46;12.32;;;8.20;;
52186;SDS011;38161;53.020;6.598;2022-09-09T00:24:28;12.75;;;7.53;;
52186;SDS011;38161;53.020;6.598;2022-09-09T00:27:01;10.00;;;7.60;;
52186;SDS011;38161;53.020;6.598;2022-09-09T00:29:42;13.07;;;7.43;;
52186;SDS011;38161;53.020;6.598;2022-09-09T00:32:16;11.07;;;7.50;;
52186;SDS011;38161;53.020;6.598;2022-09-09T00:34:53;13.00;;;7.50;;
52186;SDS011;38161;53.020;6.598;2022-09-09T00:37:24;13.52;;;7.60;;
52186;SDS011;38161;53.020;6.598;2022-09-09T00:39:51;10.70;;;7.65;;
52186;SDS011;38161;53.020;6.598;2022-09-09T00:42:26;10.73;;;7.35;;
52186;SDS011;38161;53.020;6.598;2022-09-09T00:48:07;12.77;;;7.15;;
52186;SDS011;38161;53.020;6.598;2022-09-09T00:56:41;10.10;;;6.43;;
52186;SDS011;38161;53.020;6.598;2022-09-09T01:01:47;8.85;;;7.05;;
52186;SDS011;38161;53.020;6.598;2022-09-09T01:06:45;9.88;;;6.25;;
52186;SDS011;38161;53.020;6.598;2022-09-09T01:09:29;9.07;;;6.33;;
52186;SDS011;38161;53.020;6.598;2022-09-09T01:12:08;10.90;;;6.80;;
52186;SDS011;38161;53.020;6.598;2022-09-09T01:17:05;8.30;;;6.20;;
52186;SDS011;38161;53.020;6.598;2022-09-09T01:20:01;11.27;;;6.70;;
52186;SDS011;38161;53.020;6.598;2022-09-09T01:23:02;10.80;;;6.47;;
52186;SDS011;38161;53.020;6.598;2022-09-09T01:28:34;8.93;;;5.85;;
52186;SDS011;38161;53.020;6.598;2022-09-09T01:31:02;10.02;;;6.53;;
52186;SDS011;38161;53.020;6.598;2022-09-09T01:33:31;10.05;;;6.05;;
52186;SDS011;38161;53.020;6.598;2022-09-09T01:38:25;12.23;;;6.35;;
52186;SDS011;38161;53.020;6.598;2022-09-09T01:40:53;10.70;;;7.35;;
52186;SDS011;38161;53.020;6.598;2022-09-09T01:43:20;11.90;;;7.00;;
52186;SDS011;38161;53.020;6.598;2022-09-09T01:45:47;12.43;;;6.68;;
52186;SDS011;38161;53.020;6.598;2022-09-09T01:48:16;9.02;;;6.40;;
52186;SDS011;38161;53.020;6.598;2022-09-09T01:50:43;11.43;;;7.30;;
52186;SDS011;38161;53.020;6.598;2022-09-09T01:53:09;8.77;;;6.60;;
52186;SDS011;38161;53.020;6.598;2022-09-09T01:55:38;11.07;;;6.97;;
52186;SDS011;38161;53.020;6.598;2022-09-09T02:00:56;9.77;;;7.05;;
52186;SDS011;38161;53.020;6.598;2022-09-09T02:03:29;9.63;;;6.35;;
52186;SDS011;38161;53.020;6.598;2022-09-09T02:06:43;11.45;;;7.05;;
52186;SDS011;38161;53.020;6.598;2022-09-09T02:08:52;11.15;;;6.32;;
52186;SDS011;38161;53.020;6.598;2022-09-09T02:11:24;11.85;;;6.63;;
52186;SDS011;38161;53.020;6.598;2022-09-09T02:13:53;9.70;;;6.28;;
52186;SDS011;38161;53.020;6.598;2022-09-09T02:19:08;10.00;;;7.00;;
52186;SDS011;38161;53.020;6.598;2022-09-09T02:21:55;11.15;;;6.72;;
52186;SDS011;38161;53.020;6.598;2022-09-09T02:24:24;8.52;;;6.03;;
52186;SDS011;38161;53.020;6.598;2022-09-09T02:26:53;9.75;;;6.63;;
52186;SDS011;38161;53.020;6.598;2022-09-09T02:29:26;9.57;;;5.50;;
52186;SDS011;38161;53.020;6.598;2022-09-09T02:31:56;11.27;;;6.05;;
52186;SDS011;38161;53.020;6.598;2022-09-09T02:34:24;8.38;;;6.07;;
52186;SDS011;38161;53.020;6.598;2022-09-09T02:36:53;12.50;;;5.78;;
52186;SDS011;38161;53.020;6.598;2022-09-09T02:39:20;9.52;;;5.88;;
52186;SDS011;38161;53.020;6.598;2022-09-09T02:41:45;10.38;;;6.47;;
52186;SDS011;38161;53.020;6.598;2022-09-09T02:52:07;10.32;;;5.88;;
52186;SDS011;38161;53.020;6.598;2022-09-09T02:54:40;7.07;;;4.95;;
52186;SDS011;38161;53.020;6.598;2022-09-09T02:59:37;8.55;;;5.05;;
52186;SDS011;38161;53.020;6.598;2022-09-09T03:02:04;10.52;;;5.10;;
52186;SDS011;38161;53.020;6.598;2022-09-09T03:06:56;9.65;;;4.90;;
52186;SDS011;38161;53.020;6.598;2022-09-09T03:09:23;10.55;;;5.25;;
52186;SDS011;38161;53.020;6.598;2022-09-09T03:11:51;8.57;;;4.20;;
52186;SDS011;38161;53.020;6.598;2022-09-09T03:14:17;9.23;;;4.32;;
52186;SDS011;38161;53.020;6.598;2022-09-09T03:16:46;11.25;;;4.95;;
52186;SDS011;38161;53.020;6.598;2022-09-09T03:19:13;9.48;;;4.55;;
52186;SDS011;38161;53.020;6.598;2022-09-09T03:21:39;8.80;;;4.40;;
52186;SDS011;38161;53.020;6.598;2022-09-09T03:24:04;9.37;;;4.43;;
52186;SDS011;38161;53.020;6.598;2022-09-09T03:26:31;7.25;;;4.18;;
52186;SDS011;38161;53.020;6.598;2022-09-09T03:28:57;9.50;;;4.75;;
52186;SDS011;38161;53.020;6.598;2022-09-09T03:31:25;9.10;;;4.97;;
52186;SDS011;38161;53.020;6.598;2022-09-09T03:33:55;6.35;;;4.20;;
52186;SDS011;38161;53.020;6.598;2022-09-09T03:36:23;9.18;;;4.45;;
52186;SDS011;38161;53.020;6.598;2022-09-09T03:38:51;7.63;;;4.38;;
52186;SDS011;38161;53.020;6.598;2022-09-09T03:41:17;7.97;;;4.50;;
52186;SDS011;38161;53.020;6.598;2022-09-09T03:43:43;7.28;;;4.30;;
52186;SDS011;38161;53.020;6.598;2022-09-09T03:46:09;6.97;;;4.25;;
52186;SDS011;38161;53.020;6.598;2022-09-09T03:48:35;6.57;;;3.75;;
52186;SDS011;38161;53.020;6.598;2022-09-09T03:51:01;7.10;;;3.87;;
52186;SDS011;38161;53.020;6.598;2022-09-09T03:53:28;10.15;;;3.83;;
52186;SDS011;38161;53.020;6.598;2022-09-09T03:58:23;10.27;;;4.00;;
52186;SDS011;38161;53.020;6.598;2022-09-09T04:03:39;5.88;;;3.95;;
52186;SDS011;38161;53.020;6.598;2022-09-09T04:06:06;6.28;;;3.50;;
52186;SDS011;38161;53.020;6.598;2022-09-09T04:08:34;8.13;;;4.10;;
52186;SDS011;38161;53.020;6.598;2022-09-09T04:11:01;6.43;;;3.80;;
52186;SDS011;38161;53.020;6.598;2022-09-09T04:13:30;6.00;;;3.58;;
52186;SDS011;38161;53.020;6.598;2022-09-09T04:15:59;8.73;;;3.67;;
52186;SDS011;38161;53.020;6.598;2022-09-09T04:18:26;6.35;;;3.78;;
52186;SDS011;38161;53.020;6.598;2022-09-09T04:20:53;6.47;;;4.18;;
52186;SDS011;38161;53.020;6.598;2022-09-09T04:25:49;7.15;;;3.60;;
52186;SDS011;38161;53.020;6.598;2022-09-09T04:28:17;9.07;;;4.75;;
52186;SDS011;38161;53.020;6.598;2022-09-09T04:30:44;7.22;;;4.57;;
52186;SDS011;38161;53.020;6.598;2022-09-09T04:33:11;7.90;;;4.85;;
52186;SDS011;38161;53.020;6.598;2022-09-09T04:38:03;8.05;;;4.28;;
52186;SDS011;38161;53.020;6.598;2022-09-09T04:40:30;7.15;;;4.90;;
52186;SDS011;38161;53.020;6.598;2022-09-09T04:45:25;8.48;;;5.03;;
52186;SDS011;38161;53.020;6.598;2022-09-09T04:47:52;8.48;;;5.90;;
52186;SDS011;38161;53.020;6.598;2022-09-09T04:50:18;8.52;;;5.60;;
52186;SDS011;38161;53.020;6.598;2022-09-09T04:52:44;7.55;;;4.97;;
52186;SDS011;38161;53.020;6.598;2022-09-09T04:55:10;7.60;;;5.20;;
52186;SDS011;38161;53.020;6.598;2022-09-09T04:57:37;7.30;;;6.10;;
52186;SDS011;38161;53.020;6.598;2022-09-09T05:00:04;8.93;;;5.93;;
52186;SDS011;38161;53.020;6.598;2022-09-09T05:04:57;9.68;;;6.50;;
52186;SDS011;38161;53.020;6.598;2022-09-09T05:07:23;8.80;;;6.50;;
52186;SDS011;38161;53.020;6.598;2022-09-09T05:09:49;11.23;;;7.40;;
52186;SDS011;38161;53.020;6.598;2022-09-09T05:12:18;14.63;;;8.32;;
52186;SDS011;38161;53.020;6.598;2022-09-09T05:14:44;10.52;;;7.18;;
52186;SDS011;38161;53.020;6.598;2022-09-09T05:17:10;11.45;;;6.75;;
52186;SDS011;38161;53.020;6.598;2022-09-09T05:19:36;8.35;;;6.32;;
52186;SDS011;38161;53.020;6.598;2022-09-09T05:22:02;12.40;;;6.57;;
52186;SDS011;38161;53.020;6.598;2022-09-09T05:24:28;11.50;;;7.05;;
52186;SDS011;38161;53.020;6.598;2022-09-09T05:26:54;10.00;;;7.15;;
52186;SDS011;38161;53.020;6.598;2022-09-09T05:29:23;10.25;;;6.90;;
52186;SDS011;38161;53.020;6.598;2022-09-09T05:31:48;10.10;;;7.18;;
52186;SDS011;38161;53.020;6.598;2022-09-09T05:34:14;12.67;;;7.13;;
52186;SDS011;38161;53.020;6.598;2022-09-09T05:36:40;11.32;;;7.60;;
52186;SDS011;38161;53.020;6.598;2022-09-09T05:39:05;9.45;;;6.93;;
52186;SDS011;38161;53.020;6.598;2022-09-09T05:41:31;12.07;;;7.40;;
52186;SDS011;38161;53.020;6.598;2022-09-09T05:43:57;12.35;;;6.97;;
52186;SDS011;38161;53.020;6.598;2022-09-09T05:46:26;8.85;;;6.82;;
52186;SDS011;38161;53.020;6.598;2022-09-09T05:48:52;9.15;;;6.57;;
52186;SDS011;38161;53.020;6.598;2022-09-09T05:51:20;9.10;;;6.88;;
52186;SDS011;38161;53.020;6.598;2022-09-09T05:53:47;7.78;;;6.07;;
52186;SDS011;38161;53.020;6.598;2022-09-09T05:58:41;10.50;;;6.57;;
52186;SDS011;38161;53.020;6.598;2022-09-09T06:01:12;9.13;;;5.97;;
52186;SDS011;38161;53.020;6.598;2022-09-09T06:03:41;9.82;;;6.40;;
52186;SDS011;38161;53.020;6.598;2022-09-09T06:06:09;8.73;;;6.25;;
52186;SDS011;38161;53.020;6.598;2022-09-09T06:08:38;8.90;;;6.05;;
52186;SDS011;38161;53.020;6.598;2022-09-09T06:11:12;9.25;;;6.68;;
52186;SDS011;38161;53.020;6.598;2022-09-09T06:13:49;9.40;;;6.75;;
52186;SDS011;38161;53.020;6.598;2022-09-09T06:16:18;7.70;;;6.05;;
52186;SDS011;38161;53.020;6.598;2022-09-09T06:18:45;11.32;;;6.82;;
52186;SDS011;38161;53.020;6.598;2022-09-09T06:21:18;10.02;;;7.03;;
52186;SDS011;38161;53.020;6.598;2022-09-09T06:23:45;8.15;;;6.57;;
52186;SDS011;38161;53.020;6.598;2022-09-09T06:26:16;8.85;;;6.05;;
52186;SDS011;38161;53.020;6.598;2022-09-09T06:28:44;9.73;;;7.15;;
52186;SDS011;38161;53.020;6.598;2022-09-09T06:31:11;8.90;;;5.95;;
52186;SDS011;38161;53.020;6.598;2022-09-09T06:33:38;9.43;;;5.95;;
52186;SDS011;38161;53.020;6.598;2022-09-09T06:36:12;9.00;;;6.25;;
52186;SDS011;38161;53.020;6.598;2022-09-09T06:38:40;9.18;;;6.63;;
52186;SDS011;38161;53.020;6.598;2022-09-09T06:41:07;9.93;;;7.45;;
52186;SDS011;38161;53.020;6.598;2022-09-09T06:43:34;10.27;;;6.80;;
52186;SDS011;38161;53.020;6.598;2022-09-09T06:48:30;14.75;;;7.25;;
52186;SDS011;38161;53.020;6.598;2022-09-09T06:51:04;10.73;;;7.28;;
52186;SDS011;38161;53.020;6.598;2022-09-09T06:53:32;10.73;;;6.80;;
52186;SDS011;38161;53.020;6.598;2022-09-09T06:56:00;9.07;;;6.75;;
52186;SDS011;38161;53.020;6.598;2022-09-09T06:58:27;9.32;;;6.10;;
52186;SDS011;38161;53.020;6.598;2022-09-09T07:01:01;9.15;;;6.75;;
52186;SDS011;38161;53.020;6.598;2022-09-09T07:03:28;9.05;;;6.50;;
52186;SDS011;38161;53.020;6.598;2022-09-09T07:05:57;12.18;;;7.20;;
52186;SDS011;38161;53.020;6.598;2022-09-09T07:08:24;10.38;;;6.70;;
52186;SDS011;38161;53.020;6.598;2022-09-09T07:10:50;7.50;;;6.07;;
52186;SDS011;38161;53.020;6.598;2022-09-09T07:13:19;11.38;;;6.97;;
52186;SDS011;38161;53.020;6.598;2022-09-09T07:15:50;9.05;;;5.68;;
52186;SDS011;38161;53.020;6.598;2022-09-09T07:18:17;8.60;;;6.30;;
52186;SDS011;38161;53.020;6.598;2022-09-09T07:20:43;11.75;;;6.43;;
52186;SDS011;38161;53.020;6.598;2022-09-09T07:23:17;9.80;;;6.47;;
52186;SDS011;38161;53.020;6.598;2022-09-09T07:25:46;8.70;;;6.20;;
52186;SDS011;38161;53.020;6.598;2022-09-09T07:28:12;10.55;;;6.13;;
52186;SDS011;38161;53.020;6.598;2022-09-09T07:30:38;8.80;;;6.30;;
52186;SDS011;38161;53.020;6.598;2022-09-09T07:33:05;9.80;;;5.97;;
52186;SDS011;38161;53.020;6.598;2022-09-09T07:35:31;7.88;;;5.88;;
52186;SDS011;38161;53.020;6.598;2022-09-09T07:37:57;10.32;;;5.72;;
52186;SDS011;38161;53.020;6.598;2022-09-09T07:40:23;9.65;;;6.30;;
52186;SDS011;38161;53.020;6.598;2022-09-09T07:42:49;9.55;;;6.28;;
52186;SDS011;38161;53.020;6.598;2022-09-09T07:45:15;9.80;;;5.53;;
52186;SDS011;38161;53.020;6.598;2022-09-09T07:47:41;11.40;;;6.25;;
52186;SDS011;38161;53.020;6.598;2022-09-09T07:50:10;8.77;;;6.25;;
52186;SDS011;38161;53.020;6.598;2022-09-09T07:52:36;10.20;;;5.97;;
52186;SDS011;38161;53.020;6.598;2022-09-09T07:55:02;8.13;;;5.40;;
52186;SDS011;38161;53.020;6.598;2022-09-09T07:57:29;8.10;;;5.72;;
52186;SDS011;38161;53.020;6.598;2022-09-09T07:59:56;8.63;;;5.68;;
52186;SDS011;38161;53.020;6.598;2022-09-09T08:02:22;10.48;;;6.15;;
52186;SDS011;38161;53.020;6.598;2022-09-09T08:04:50;9.55;;;5.90;;
52186;SDS011;38161;53.020;6.598;2022-09-09T08:07:17;8.90;;;5.60;;
52186;SDS011;38161;53.020;6.598;2022-09-09T08:09:43;9.13;;;5.90;;
52186;SDS011;38161;53.020;6.598;2022-09-09T08:12:08;10.23;;;6.38;;
52186;SDS011;38161;53.020;6.598;2022-09-09T08:14:35;9.48;;;5.57;;
52186;SDS011;38161;53.020;6.598;2022-09-09T08:17:01;9.50;;;6.00;;
52186;SDS011;38161;53.020;6.598;2022-09-09T08:19:27;10.60;;;5.47;;
52186;SDS011;38161;53.020;6.598;2022-09-09T08:21:59;9.23;;;5.15;;
52186;SDS011;38161;53.020;6.598;2022-09-09T08:24:27;8.00;;;5.53;;
52186;SDS011;38161;53.020;6.598;2022-09-09T08:26:53;8.13;;;5.72;;
52186;SDS011;38161;53.020;6.598;2022-09-09T08:29:18;10.35;;;6.25;;
52186;SDS011;38161;53.020;6.598;2022-09-09T08:31:49;11.73;;;6.22;;
52186;SDS011;38161;53.020;6.598;2022-09-09T08:34:20;10.60;;;6.15;;
52186;SDS011;38161;53.020;6.598;2022-09-09T08:36:47;9.05;;;5.63;;
52186;SDS011;38161;53.020;6.598;2022-09-09T08:39:14;7.65;;;5.50;;
52186;SDS011;38161;53.020;6.598;2022-09-09T08:47:26;9.90;;;5.47;;
52186;SDS011;38161;53.020;6.598;2022-09-09T08:55:24;9.63;;;5.95;;
52186;SDS011;38161;53.020;6.598;2022-09-09T08:58:17;11.43;;;5.80;;
52186;SDS011;38161;53.020;6.598;2022-09-09T09:09:05;15.25;;;6.03;;
52186;SDS011;38161;53.020;6.598;2022-09-09T09:11:56;12.55;;;5.85;;
52186;SDS011;38161;53.020;6.598;2022-09-09T09:14:26;10.25;;;6.00;;
52186;SDS011;38161;53.020;6.598;2022-09-09T09:17:02;9.32;;;5.57;;
52186;SDS011;38161;53.020;6.598;2022-09-09T09:19:34;9.13;;;5.30;;
52186;SDS011;38161;53.020;6.598;2022-09-09T09:27:01;8.85;;;5.32;;
52186;SDS011;38161;53.020;6.598;2022-09-09T09:29:54;9.55;;;5.18;;
52186;SDS011;38161;53.020;6.598;2022-09-09T09:32:21;9.25;;;5.07;;
52186;SDS011;38161;53.020;6.598;2022-09-09T09:34:51;11.60;;;4.60;;
52186;SDS011;38161;53.020;6.598;2022-09-09T09:37:32;9.98;;;4.80;;
52186;SDS011;38161;53.020;6.598;2022-09-09T09:42:59;13.02;;;4.43;;
52186;SDS011;38161;53.020;6.598;2022-09-09T09:45:32;9.93;;;4.32;;
52186;SDS011;38161;53.020;6.598;2022-09-09T09:48:00;10.85;;;4.05;;
52186;SDS011;38161;53.020;6.598;2022-09-09T09:50:28;10.38;;;4.07;;
52186;SDS011;38161;53.020;6.598;2022-09-09T09:53:02;9.93;;;3.70;;
52186;SDS011;38161;53.020;6.598;2022-09-09T09:55:31;9.02;;;3.67;;
52186;SDS011;38161;53.020;6.598;2022-09-09T09:58:06;8.38;;;3.60;;
52186;SDS011;38161;53.020;6.598;2022-09-09T10:00:47;10.75;;;3.83;;
52186;SDS011;38161;53.020;6.598;2022-09-09T10:03:35;8.40;;;3.45;;
52186;SDS011;38161;53.020;6.598;2022-09-09T10:06:04;13.90;;;3.65;;
52186;SDS011;38161;53.020;6.598;2022-09-09T10:08:33;8.48;;;3.95;;
52186;SDS011;38161;53.020;6.598;2022-09-09T10:20:11;7.32;;;2.78;;
52186;SDS011;38161;53.020;6.598;2022-09-09T10:22:51;7.40;;;2.80;;
52186;SDS011;38161;53.020;6.598;2022-09-09T10:25:39;11.98;;;3.15;;
52186;SDS011;38161;53.020;6.598;2022-09-09T10:36:22;7.43;;;2.40;;
52186;SDS011;38161;53.020;6.598;2022-09-09T10:38:58;8.73;;;2.65;;
52186;SDS011;38161;53.020;6.598;2022-09-09T10:41:38;5.47;;;2.33;;
52186;SDS011;38161;53.020;6.598;2022-09-09T10:57:43;6.68;;;2.08;;
52186;SDS011;38161;53.020;6.598;2022-09-09T11:00:15;6.72;;;2.35;;
52186;SDS011;38161;53.020;6.598;2022-09-09T11:03:15;5.15;;;2.00;;
52186;SDS011;38161;53.020;6.598;2022-09-09T11:05:55;6.93;;;2.35;;
52186;SDS011;38161;53.020;6.598;2022-09-09T11:08:28;6.03;;;2.05;;
52186;SDS011;38161;53.020;6.598;2022-09-09T11:13:49;6.90;;;2.30;;
52186;SDS011;38161;53.020;6.598;2022-09-09T11:19:33;6.90;;;2.40;;
52186;SDS011;38161;53.020;6.598;2022-09-09T11:22:01;5.05;;;1.92;;
52186;SDS011;38161;53.020;6.598;2022-09-09T11:24:37;7.93;;;2.00;;
52186;SDS011;38161;53.020;6.598;2022-09-09T11:35:21;7.75;;;2.40;;
52186;SDS011;38161;53.020;6.598;2022-09-09T11:38:00;9.60;;;2.30;;
52186;SDS011;38161;53.020;6.598;2022-09-09T11:40:43;7.45;;;2.20;;
52186;SDS011;38161;53.020;6.598;2022-09-09T11:43:11;7.28;;;2.00;;
52186;SDS011;38161;53.020;6.598;2022-09-09T11:45:42;6.50;;;2.30;;
52186;SDS011;38161;53.020;6.598;2022-09-09T11:53:32;7.75;;;2.33;;
52186;SDS011;38161;53.020;6.598;2022-09-09T11:56:09;5.88;;;2.08;;
52186;SDS011;38161;53.020;6.598;2022-09-09T11:59:00;7.53;;;2.10;;
52186;SDS011;38161;53.020;6.598;2022-09-09T12:01:41;6.30;;;2.42;;
52186;SDS011;38161;53.020;6.598;2022-09-09T12:06:44;7.88;;;1.95;;
52186;SDS011;38161;53.020;6.598;2022-09-09T12:09:23;6.85;;;2.28;;
52186;SDS011;38161;53.020;6.598;2022-09-09T12:17:28;6.28;;;2.03;;
52186;SDS011;38161;53.020;6.598;2022-09-09T12:23:00;10.05;;;2.63;;
52186;SDS011;38161;53.020;6.598;2022-09-09T12:28:21;6.30;;;2.20;;
52186;SDS011;38161;53.020;6.598;2022-09-09T12:33:34;8.32;;;2.30;;
52186;SDS011;38161;53.020;6.598;2022-09-09T12:36:01;4.90;;;2.10;;
52186;SDS011;38161;53.020;6.598;2022-09-09T12:38:34;11.18;;;2.42;;
52186;SDS011;38161;53.020;6.598;2022-09-09T12:41:04;6.72;;;2.50;;
52186;SDS011;38161;53.020;6.598;2022-09-09T12:46:01;8.23;;;2.67;;
52186;SDS011;38161;53.020;6.598;2022-09-09T12:48:35;5.18;;;1.88;;
52186;SDS011;38161;53.020;6.598;2022-09-09T12:51:07;5.60;;;2.25;;
52186;SDS011;38161;53.020;6.598;2022-09-09T12:53:53;6.70;;;2.63;;
52186;SDS011;38161;53.020;6.598;2022-09-09T12:56:21;5.63;;;2.20;;
52186;SDS011;38161;53.020;6.598;2022-09-09T12:58:56;4.53;;;2.00;;
52186;SDS011;38161;53.020;6.598;2022-09-09T13:01:27;5.93;;;1.77;;
52186;SDS011;38161;53.020;6.598;2022-09-09T13:03:58;6.32;;;1.92;;
52186;SDS011;38161;53.020;6.598;2022-09-09T13:06:25;7.75;;;2.05;;
52186;SDS011;38161;53.020;6.598;2022-09-09T13:08:53;6.47;;;1.90;;
52186;SDS011;38161;53.020;6.598;2022-09-09T13:11:24;6.35;;;2.17;;
52186;SDS011;38161;53.020;6.598;2022-09-09T13:13:56;6.57;;;1.73;;
52186;SDS011;38161;53.020;6.598;2022-09-09T13:16:25;5.13;;;1.55;;
52186;SDS011;38161;53.020;6.598;2022-09-09T13:18:57;5.78;;;1.88;;
52186;SDS011;38161;53.020;6.598;2022-09-09T13:21:31;6.32;;;1.85;;
52186;SDS011;38161;53.020;6.598;2022-09-09T13:23:59;4.45;;;1.50;;
52186;SDS011;38161;53.020;6.598;2022-09-09T13:26:28;9.20;;;2.03;;
52186;SDS011;38161;53.020;6.598;2022-09-09T13:28:55;6.32;;;1.75;;
52186;SDS011;38161;53.020;6.598;2022-09-09T13:31:43;9.07;;;1.95;;
52186;SDS011;38161;53.020;6.598;2022-09-09T13:34:26;4.35;;;1.90;;
52186;SDS011;38161;53.020;6.598;2022-09-09T13:37:04;3.90;;;1.92;;
52186;SDS011;38161;53.020;6.598;2022-09-09T13:39:34;12.10;;;2.08;;
52186;SDS011;38161;53.020;6.598;2022-09-09T13:42:02;6.53;;;1.88;;
52186;SDS011;38161;53.020;6.598;2022-09-09T13:44:31;8.75;;;1.95;;
52186;SDS011;38161;53.020;6.598;2022-09-09T13:49:33;5.15;;;1.80;;
52186;SDS011;38161;53.020;6.598;2022-09-09T13:52:12;3.78;;;1.80;;
52186;SDS011;38161;53.020;6.598;2022-09-09T13:54:40;5.07;;;1.83;;
52186;SDS011;38161;53.020;6.598;2022-09-09T13:59:50;6.68;;;1.65;;
52186;SDS011;38161;53.020;6.598;2022-09-09T14:02:18;5.20;;;2.15;;
52186;SDS011;38161;53.020;6.598;2022-09-09T14:04:44;7.55;;;1.67;;
52186;SDS011;38161;53.020;6.598;2022-09-09T14:07:19;2.53;;;1.45;;
52186;SDS011;38161;53.020;6.598;2022-09-09T14:09:45;4.35;;;1.60;;
52186;SDS011;38161;53.020;6.598;2022-09-09T14:12:15;3.25;;;1.42;;
52186;SDS011;38161;53.020;6.598;2022-09-09T14:14:42;4.03;;;1.40;;
52186;SDS011;38161;53.020;6.598;2022-09-09T14:17:08;7.55;;;1.55;;
52186;SDS011;38161;53.020;6.598;2022-09-09T14:19:35;6.60;;;1.58;;
52186;SDS011;38161;53.020;6.598;2022-09-09T14:22:02;5.30;;;1.40;;
52186;SDS011;38161;53.020;6.598;2022-09-09T14:24:28;5.00;;;1.50;;
52186;SDS011;38161;53.020;6.598;2022-09-09T14:26:54;4.00;;;1.20;;
52186;SDS011;38161;53.020;6.598;2022-09-09T14:29:20;3.80;;;1.30;;
52186;SDS011;38161;53.020;6.598;2022-09-09T14:31:45;2.47;;;1.27;;
52186;SDS011;38161;53.020;6.598;2022-09-09T14:34:12;5.03;;;1.52;;
52186;SDS011;38161;53.020;6.598;2022-09-09T14:36:39;2.40;;;1.25;;
52186;SDS011;38161;53.020;6.598;2022-09-09T14:39:06;5.65;;;1.45;;
52186;SDS011;38161;53.020;6.598;2022-09-09T14:41:32;5.60;;;1.40;;
52186;SDS011;38161;53.020;6.598;2022-09-09T14:43:58;5.40;;;1.95;;
52186;SDS011;38161;53.020;6.598;2022-09-09T14:46:25;4.25;;;1.80;;
52186;SDS011;38161;53.020;6.598;2022-09-09T14:48:51;3.78;;;1.40;;
52186;SDS011;38161;53.020;6.598;2022-09-09T14:51:21;2.28;;;1.27;;
52186;SDS011;38161;53.020;6.598;2022-09-09T14:53:50;2.72;;;1.40;;
52186;SDS011;38161;53.020;6.598;2022-09-09T14:56:18;5.03;;;1.60;;
52186;SDS011;38161;53.020;6.598;2022-09-09T14:58:47;4.28;;;1.60;;
52186;SDS011;38161;53.020;6.598;2022-09-09T15:01:14;3.53;;;1.33;;
52186;SDS011;38161;53.020;6.598;2022-09-09T15:03:42;4.65;;;1.55;;
52186;SDS011;38161;53.020;6.598;2022-09-09T15:06:13;5.38;;;1.58;;
52186;SDS011;38161;53.020;6.598;2022-09-09T15:08:41;2.28;;;1.10;;
52186;SDS011;38161;53.020;6.598;2022-09-09T15:11:09;4.22;;;1.27;;
52186;SDS011;38161;53.020;6.598;2022-09-09T15:13:35;3.38;;;1.35;;
52186;SDS011;38161;53.020;6.598;2022-09-09T15:16:06;3.25;;;1.25;;
52186;SDS011;38161;53.020;6.598;2022-09-09T15:18:33;2.80;;;0.90;;
52186;SDS011;38161;53.020;6.598;2022-09-09T15:20:59;2.90;;;1.10;;
52186;SDS011;38161;53.020;6.598;2022-09-09T15:23:26;2.58;;;1.30;;
52186;SDS011;38161;53.020;6.598;2022-09-09T15:25:53;2.40;;;1.27;;
52186;SDS011;38161;53.020;6.598;2022-09-09T15:28:19;4.60;;;1.60;;
52186;SDS011;38161;53.020;6.598;2022-09-09T15:30:49;4.53;;;1.58;;
52186;SDS011;38161;53.020;6.598;2022-09-09T15:33:17;3.80;;;1.30;;
52186;SDS011;38161;53.020;6.598;2022-09-09T15:35:43;4.13;;;1.50;;
52186;SDS011;38161;53.020;6.598;2022-09-09T15:38:10;4.75;;;1.65;;
52186;SDS011;38161;53.020;6.598;2022-09-09T15:40:38;4.15;;;1.40;;
52186;SDS011;38161;53.020;6.598;2022-09-09T15:43:05;3.85;;;1.80;;
52186;SDS011;38161;53.020;6.598;2022-09-09T15:45:31;3.65;;;1.23;;
52186;SDS011;38161;53.020;6.598;2022-09-09T15:47:59;4.07;;;1.50;;
52186;SDS011;38161;53.020;6.598;2022-09-09T15:50:25;3.22;;;1.60;;
52186;SDS011;38161;53.020;6.598;2022-09-09T15:52:52;4.18;;;1.42;;
52186;SDS011;38161;53.020;6.598;2022-09-09T15:55:18;3.63;;;1.38;;
52186;SDS011;38161;53.020;6.598;2022-09-09T15:57:45;5.03;;;2.20;;
52186;SDS011;38161;53.020;6.598;2022-09-09T16:02:38;3.00;;;1.50;;
52186;SDS011;38161;53.020;6.598;2022-09-09T16:05:04;4.45;;;1.73;;
52186;SDS011;38161;53.020;6.598;2022-09-09T16:07:31;4.15;;;1.45;;
52186;SDS011;38161;53.020;6.598;2022-09-09T16:09:56;2.97;;;1.00;;
52186;SDS011;38161;53.020;6.598;2022-09-09T16:12:22;5.00;;;1.50;;
52186;SDS011;38161;53.020;6.598;2022-09-09T16:14:48;4.32;;;1.50;;
52186;SDS011;38161;53.020;6.598;2022-09-09T16:17:14;3.88;;;1.45;;
52186;SDS011;38161;53.020;6.598;2022-09-09T16:19:40;3.95;;;1.15;;
52186;SDS011;38161;53.020;6.598;2022-09-09T16:22:06;2.78;;;1.48;;
52186;SDS011;38161;53.020;6.598;2022-09-09T16:24:32;3.97;;;1.50;;
52186;SDS011;38161;53.020;6.598;2022-09-09T16:26:58;6.65;;;1.60;;
52186;SDS011;38161;53.020;6.598;2022-09-09T16:29:24;2.90;;;1.48;;
52186;SDS011;38161;53.020;6.598;2022-09-09T16:31:52;3.38;;;1.40;;
52186;SDS011;38161;53.020;6.598;2022-09-09T16:34:19;3.17;;;1.50;;
52186;SDS011;38161;53.020;6.598;2022-09-09T16:36:46;6.03;;;2.10;;
52186;SDS011;38161;53.020;6.598;2022-09-09T16:39:18;4.13;;;1.75;;
52186;SDS011;38161;53.020;6.598;2022-09-09T16:41:46;5.07;;;1.60;;
52186;SDS011;38161;53.020;6.598;2022-09-09T16:44:13;4.05;;;1.63;;
52186;SDS011;38161;53.020;6.598;2022-09-09T16:46:43;3.85;;;1.48;;
52186;SDS011;38161;53.020;6.598;2022-09-09T16:49:10;3.72;;;1.50;;
52186;SDS011;38161;53.020;6.598;2022-09-09T16:51:39;2.53;;;1.48;;
52186;SDS011;38161;53.020;6.598;2022-09-09T16:54:09;8.48;;;1.88;;
52186;SDS011;38161;53.020;6.598;2022-09-09T16:56:37;3.85;;;1.50;;
52186;SDS011;38161;53.020;6.598;2022-09-09T16:59:07;4.63;;;1.48;;
52186;SDS011;38161;53.020;6.598;2022-09-09T17:01:39;4.22;;;1.40;;
52186;SDS011;38161;53.020;6.598;2022-09-09T17:04:07;3.90;;;1.80;;
52186;SDS011;38161;53.020;6.598;2022-09-09T17:06:34;3.80;;;2.00;;
52186;SDS011;38161;53.020;6.598;2022-09-09T17:09:03;5.95;;;1.25;;
52186;SDS011;38161;53.020;6.598;2022-09-09T17:11:31;3.00;;;1.65;;
52186;SDS011;38161;53.020;6.598;2022-09-09T17:13:57;2.78;;;1.60;;
52186;SDS011;38161;53.020;6.598;2022-09-09T17:16:24;3.65;;;1.63;;
52186;SDS011;38161;53.020;6.598;2022-09-09T17:18:55;3.33;;;1.50;;
52186;SDS011;38161;53.020;6.598;2022-09-09T17:21:22;3.83;;;1.98;;
52186;SDS011;38161;53.020;6.598;2022-09-09T17:23:50;2.50;;;1.40;;
52186;SDS011;38161;53.020;6.598;2022-09-09T17:26:18;3.58;;;1.60;;
52186;SDS011;38161;53.020;6.598;2022-09-09T17:28:46;3.50;;;1.73;;
52186;SDS011;38161;53.020;6.598;2022-09-09T17:31:13;2.95;;;1.40;;
52186;SDS011;38161;53.020;6.598;2022-09-09T17:33:41;4.28;;;1.60;;
52186;SDS011;38161;53.020;6.598;2022-09-09T17:36:13;4.30;;;1.70;;
52186;SDS011;38161;53.020;6.598;2022-09-09T17:38:44;4.97;;;1.63;;
52186;SDS011;38161;53.020;6.598;2022-09-09T17:41:12;6.25;;;1.60;;
52186;SDS011;38161;53.020;6.598;2022-09-09T17:43:39;4.80;;;1.90;;
52186;SDS011;38161;53.020;6.598;2022-09-09T17:48:37;4.50;;;1.48;;